createdAt,value
2018-12-13T00:01:20.455Z,100908.28
2018-12-13T00:03:49.865Z,100906.27
2018-12-13T00:06:19.023Z,100908.03
2018-12-13T00:08:48.152Z,100900.66
2018-12-13T00:11:17.292Z,100901.69
2018-12-13T00:13:46.798Z,100903.53
2018-12-13T00:16:16.242Z,100898.81
2018-12-13T00:18:45.484Z,100898.02
2018-12-13T00:21:14.804Z,100894.85
2018-12-13T00:23:44.160Z,100890.02
2018-12-13T00:26:13.384Z,100896.27
2018-12-13T00:28:42.875Z,100893.77
2018-12-13T00:31:12.271Z,100893.22
2018-12-13T00:33:41.740Z,100889.95
2018-12-13T00:36:11.032Z,100885.61
2018-12-13T00:38:40.341Z,100895.34
2018-12-13T00:41:09.656Z,100888.83
2018-12-13T00:43:38.938Z,100895.91
2018-12-13T00:46:08.463Z,100887.92
2018-12-13T00:48:37.878Z,100884.00
2018-12-13T00:51:07.269Z,100879.16
2018-12-13T00:53:36.687Z,100873.75
2018-12-13T00:56:06.171Z,100867.42
2018-12-13T00:58:35.884Z,100860.22
2018-12-13T01:01:05.577Z,100856.56
2018-12-13T01:03:35.008Z,100859.64
2018-12-13T01:06:04.944Z,100858.76
2018-12-13T01:08:34.336Z,100857.10
2018-12-13T01:11:03.842Z,100855.81
2018-12-13T01:13:33.640Z,100855.92
2018-12-13T01:16:03.251Z,100856.12
2018-12-13T01:18:32.360Z,100854.89
2018-12-13T01:21:01.686Z,100856.75
2018-12-13T01:23:30.996Z,100858.01
2018-12-13T01:26:01.375Z,100858.78
2018-12-13T01:28:30.513Z,100858.55
2018-12-13T01:30:59.688Z,100861.66
2018-12-13T01:33:29.167Z,100855.64
2018-12-13T01:35:58.626Z,100858.50
2018-12-13T01:38:27.939Z,100858.66
2018-12-13T01:40:57.080Z,100857.64
2018-12-13T01:43:26.371Z,100850.06
2018-12-13T01:45:55.578Z,100849.22
2018-12-13T01:48:24.873Z,100849.83
2018-12-13T01:50:54.079Z,100842.20
2018-12-13T01:53:23.271Z,100840.36
2018-12-13T01:55:52.468Z,100842.67
2018-12-13T01:58:21.655Z,100835.55
2018-12-13T02:00:51.069Z,100834.85
2018-12-13T02:03:20.196Z,100837.03
2018-12-13T02:05:49.401Z,100835.79
2018-12-13T02:08:18.603Z,100830.45
2018-12-13T02:10:47.955Z,100823.33
2018-12-13T02:13:17.381Z,100820.86
2018-12-13T02:15:46.720Z,100820.59
2018-12-13T02:18:16.187Z,100821.06
2018-12-13T02:20:45.584Z,100825.40
2018-12-13T02:23:14.764Z,100827.42
2018-12-13T02:25:44.031Z,100826.81
2018-12-13T02:28:13.071Z,100831.68
2018-12-13T02:30:42.369Z,100830.16
2018-12-13T02:33:11.768Z,100816.20
2018-12-13T02:35:41.203Z,100818.89
2018-12-13T02:38:10.308Z,100819.53
2018-12-13T02:40:39.799Z,100818.41
2018-12-13T02:43:08.932Z,100820.97
2018-12-13T02:45:38.181Z,100816.17
2018-12-13T02:48:07.449Z,100813.92
2018-12-13T02:50:36.796Z,100813.85
2018-12-13T02:53:06.321Z,100815.25
2018-12-13T02:55:35.595Z,100809.33
2018-12-13T02:58:04.816Z,100801.20
2018-12-13T03:00:34.075Z,100797.34
2018-12-13T03:03:03.443Z,100791.27
2018-12-13T03:05:32.934Z,100790.80
2018-12-13T03:08:02.214Z,100788.95
2018-12-13T03:10:31.560Z,100784.58
2018-12-13T03:13:00.912Z,100786.67
2018-12-13T03:15:30.139Z,100786.44
2018-12-13T03:17:59.399Z,100780.98
2018-12-13T03:20:28.525Z,100782.13
2018-12-13T03:22:57.794Z,100774.48
2018-12-13T03:25:26.979Z,100776.57
2018-12-13T03:27:56.208Z,100774.05
2018-12-13T03:30:25.524Z,100770.42
2018-12-13T03:32:54.806Z,100772.46
2018-12-13T03:35:24.179Z,100768.28
2018-12-13T03:37:53.578Z,100765.08
2018-12-13T03:40:22.749Z,100768.36
2018-12-13T03:42:52.253Z,100761.94
2018-12-13T03:45:21.481Z,100763.42
2018-12-13T03:47:50.869Z,100754.98
2018-12-13T03:50:20.085Z,100749.91
2018-12-13T03:52:49.477Z,100753.22
2018-12-13T03:55:20.913Z,100743.30
2018-12-13T03:57:50.234Z,100747.34
2018-12-13T04:00:19.300Z,100741.76
2018-12-13T04:02:48.563Z,100738.12
2018-12-13T04:05:17.806Z,100739.36
2018-12-13T04:07:47.023Z,100736.96
2018-12-13T04:10:16.405Z,100731.30
2018-12-13T04:12:45.633Z,100720.93
2018-12-13T04:15:14.941Z,100724.13
2018-12-13T04:17:44.292Z,100730.61
2018-12-13T04:20:13.632Z,100723.72
2018-12-13T04:22:42.766Z,100722.63
2018-12-13T04:25:12.073Z,100717.69
2018-12-13T04:27:41.412Z,100717.84
2018-12-13T04:30:10.836Z,100720.47
2018-12-13T04:32:40.251Z,100710.56
2018-12-13T04:35:09.537Z,100715.04
2018-12-13T04:37:38.876Z,100710.80
2018-12-13T04:40:08.088Z,100712.63
2018-12-13T04:42:37.307Z,100718.84
2018-12-13T04:45:06.863Z,100709.45
2018-12-13T04:47:36.228Z,100708.85
2018-12-13T04:50:06.535Z,100712.36
2018-12-13T04:52:36.004Z,100716.03
2018-12-13T04:55:05.429Z,100707.38
2018-12-13T04:57:34.841Z,100706.89
2018-12-13T05:00:04.043Z,100702.69
2018-12-13T05:02:33.116Z,100700.06
2018-12-13T05:05:02.502Z,100702.11
2018-12-13T05:07:31.673Z,100706.91
2018-12-13T05:10:00.995Z,100703.89
2018-12-13T05:12:30.201Z,100699.86
2018-12-13T05:14:59.580Z,100701.95
2018-12-13T05:17:29.088Z,100704.49
2018-12-13T05:19:58.506Z,100702.33
2018-12-13T05:22:27.747Z,100696.47
2018-12-13T05:24:57.547Z,100693.38
2018-12-13T05:27:26.704Z,100687.75
2018-12-13T05:29:56.103Z,100693.77
2018-12-13T05:32:25.502Z,100690.92
2018-12-13T05:34:54.717Z,100688.00
2018-12-13T05:37:24.018Z,100690.08
2018-12-13T05:39:53.464Z,100693.56
2018-12-13T05:42:22.763Z,100696.72
2018-12-13T05:44:52.012Z,100700.88
2018-12-13T05:47:21.403Z,100696.66
2018-12-13T05:49:50.719Z,100701.05
2018-12-13T05:52:20.131Z,100699.67
2018-12-13T05:54:49.577Z,100691.42
2018-12-13T05:57:18.835Z,100693.42
2018-12-13T05:59:48.188Z,100688.31
2018-12-13T06:02:17.519Z,100685.31
2018-12-13T06:04:46.969Z,100679.83
2018-12-13T06:07:16.399Z,100686.23
2018-12-13T06:09:45.643Z,100675.79
2018-12-13T06:12:15.122Z,100674.41
2018-12-13T06:14:44.514Z,100676.01
2018-12-13T06:17:13.765Z,100680.56
2018-12-13T06:19:42.888Z,100676.87
2018-12-13T06:22:12.145Z,100678.58
2018-12-13T06:24:41.464Z,100687.83
2018-12-13T06:27:10.724Z,100687.38
2018-12-13T06:29:43.080Z,100679.91
2018-12-13T06:32:11.697Z,100684.03
2018-12-13T06:34:41.114Z,100689.67
2018-12-13T06:37:10.597Z,100682.00
2018-12-13T06:39:39.948Z,100686.52
2018-12-13T06:42:09.200Z,100689.28
2018-12-13T06:44:38.783Z,100681.66
2018-12-13T06:47:08.219Z,100677.81
2018-12-13T06:49:37.718Z,100680.83
2018-12-13T06:52:07.188Z,100684.63
2018-12-13T06:54:36.542Z,100681.19
2018-12-13T06:57:05.982Z,100674.80
2018-12-13T06:59:35.391Z,100682.83
2018-12-13T07:02:04.581Z,100685.63
2018-12-13T07:04:33.827Z,100684.99
2018-12-13T07:07:03.221Z,100686.12
2018-12-13T07:09:32.768Z,100692.44
2018-12-13T07:12:02.195Z,100691.73
2018-12-13T07:14:31.648Z,100699.25
2018-12-13T07:17:00.935Z,100706.34
2018-12-13T07:19:30.434Z,100701.80
2018-12-13T07:21:59.691Z,100702.81
2018-12-13T07:24:29.024Z,100695.91
2018-12-13T07:26:58.515Z,100692.83
2018-12-13T07:29:28.156Z,100698.46
2018-12-13T07:31:57.520Z,100696.90
2018-12-13T07:34:27.171Z,100699.89
2018-12-13T07:36:56.695Z,100701.67
2018-12-13T07:39:26.077Z,100700.29
2018-12-13T07:41:55.459Z,100707.00
2018-12-13T07:44:25.189Z,100703.61
2018-12-13T07:46:54.472Z,100706.03
2018-12-13T07:49:24.100Z,100711.19
2018-12-13T07:51:53.297Z,100704.91
2018-12-13T07:54:22.616Z,100707.38
2018-12-13T07:56:51.938Z,100719.05
2018-12-13T07:59:21.364Z,100708.55
2018-12-13T08:01:50.692Z,100716.70
2018-12-13T08:04:19.949Z,100717.09
2018-12-13T08:06:49.333Z,100719.58
2018-12-13T08:09:18.499Z,100715.89
2018-12-13T08:11:47.939Z,100716.42
2018-12-13T08:14:17.178Z,100717.09
2018-12-13T08:16:46.360Z,100718.55
2018-12-13T08:19:15.440Z,100714.36
2018-12-13T08:21:44.829Z,100717.38
2018-12-13T08:24:14.192Z,100714.36
2018-12-13T08:26:43.747Z,100712.16
2018-12-13T08:29:13.232Z,100711.98
2018-12-13T08:31:42.635Z,100710.46
2018-12-13T08:34:12.023Z,100707.84
2018-12-13T08:36:41.550Z,100710.63
2018-12-13T08:39:10.836Z,100704.61
2018-12-13T08:41:40.303Z,100714.65
2018-12-13T08:44:09.603Z,100704.98
2018-12-13T08:46:38.841Z,100698.42
2018-12-13T08:49:08.133Z,100708.31
2018-12-13T08:51:37.384Z,100709.70
2018-12-13T08:54:06.556Z,100703.03
2018-12-13T08:56:35.824Z,100695.08
2018-12-13T08:59:05.063Z,100692.33
2018-12-13T09:01:34.324Z,100696.94
2018-12-13T09:04:03.647Z,100701.89
2018-12-13T09:06:33.047Z,100700.84
2018-12-13T09:09:02.235Z,100693.51
2018-12-13T09:11:31.756Z,100696.50
2018-12-13T09:14:00.998Z,100697.87
2018-12-13T09:16:31.652Z,100698.78
2018-12-13T09:19:01.130Z,100690.58
2018-12-13T09:21:30.370Z,100699.31
2018-12-13T09:23:59.636Z,100695.70
2018-12-13T09:26:28.990Z,100701.59
2018-12-13T09:28:58.782Z,100698.17
2018-12-13T09:31:28.066Z,100700.80
2018-12-13T09:33:57.272Z,100697.48
2018-12-13T09:36:26.728Z,100696.22
2018-12-13T09:38:56.036Z,100697.70
2018-12-13T09:41:25.280Z,100703.05
2018-12-13T09:43:54.647Z,100701.58
2018-12-13T09:46:24.183Z,100704.34
2018-12-13T09:48:53.600Z,100695.63
2018-12-13T09:51:22.968Z,100695.88
2018-12-13T09:53:52.355Z,100687.36
2018-12-13T09:56:21.694Z,100685.03
2018-12-13T09:58:50.904Z,100688.71
2018-12-13T10:01:20.298Z,100679.82
2018-12-13T10:03:49.825Z,100683.87
2018-12-13T10:06:19.176Z,100672.92
2018-12-13T10:08:48.705Z,100666.67
2018-12-13T10:11:18.367Z,100663.03
2018-12-13T10:13:48.043Z,100662.37
2018-12-13T10:16:19.219Z,100658.36
2018-12-13T10:18:50.088Z,100640.04
2018-12-13T10:21:19.380Z,100652.11
2018-12-13T10:23:48.698Z,100649.14
2018-12-13T10:26:17.937Z,100648.20
2018-12-13T10:28:47.344Z,100652.25
2018-12-13T10:31:16.570Z,100647.52
2018-12-13T10:33:45.956Z,100634.78
2018-12-13T10:36:15.084Z,100641.70
2018-12-13T10:38:44.420Z,100644.28
2018-12-13T10:41:13.703Z,100639.83
2018-12-13T10:43:43.053Z,100642.58
2018-12-13T10:46:12.384Z,100637.09
2018-12-13T10:48:41.740Z,100630.69
2018-12-13T10:51:11.050Z,100626.91
2018-12-13T10:53:40.444Z,100627.21
2018-12-13T10:56:09.756Z,100614.98
2018-12-13T10:58:39.537Z,100612.06
2018-12-13T11:01:13.704Z,100620.38
2018-12-13T11:03:43.063Z,100614.59
2018-12-13T11:06:12.358Z,100624.59
2018-12-13T11:08:41.736Z,100614.92
2018-12-13T11:11:11.132Z,100605.36
2018-12-13T11:13:40.395Z,100607.10
2018-12-13T11:16:09.571Z,100614.33
2018-12-13T11:18:38.975Z,100604.25
2018-12-13T11:21:08.459Z,100597.53
2018-12-13T11:23:37.828Z,100602.41
2018-12-13T11:26:07.179Z,100596.69
2018-12-13T11:28:47.168Z,100606.90
2018-12-13T11:31:16.424Z,100599.06
2018-12-13T11:33:45.973Z,100603.38
2018-12-13T11:36:15.267Z,100591.37
2018-12-13T11:38:44.690Z,100598.50
2018-12-13T11:41:14.036Z,100602.61
2018-12-13T11:43:43.335Z,100587.03
2018-12-13T11:46:12.745Z,100590.28
2018-12-13T11:48:42.094Z,100585.77
2018-12-13T11:51:11.440Z,100588.20
2018-12-13T11:53:40.860Z,100586.42
2018-12-13T11:56:10.148Z,100586.13
2018-12-13T11:58:39.316Z,100582.73
2018-12-13T12:01:08.647Z,100578.30
2018-12-13T12:03:37.981Z,100574.28
2018-12-13T12:06:07.363Z,100578.38
2018-12-13T12:08:36.816Z,100579.90
2018-12-13T12:11:06.258Z,100566.14
2018-12-13T12:13:35.674Z,100562.13
2018-12-13T12:16:05.221Z,100562.91
2018-12-13T12:18:34.669Z,100562.25
2018-12-13T12:21:03.871Z,100558.38
2018-12-13T12:23:32.985Z,100564.03
2018-12-13T12:26:02.664Z,100560.96
2018-12-13T12:28:31.812Z,100557.09
2018-12-13T12:31:01.172Z,100559.64
2018-12-13T12:33:30.406Z,100559.16
2018-12-13T12:35:59.678Z,100564.29
2018-12-13T12:38:29.112Z,100548.47
2018-12-13T12:40:58.541Z,100547.67
2018-12-13T12:43:27.778Z,100544.98
2018-12-13T12:45:57.007Z,100549.91
2018-12-13T12:48:26.424Z,100545.58
2018-12-13T12:50:55.455Z,100539.41
2018-12-13T12:53:24.768Z,100537.62
2018-12-13T12:55:53.785Z,100529.34
2018-12-13T12:58:23.027Z,100520.69
2018-12-13T13:00:52.360Z,100521.67
2018-12-13T13:03:21.660Z,100515.56
2018-12-13T13:05:50.971Z,100515.95
2018-12-13T13:08:20.272Z,100511.10
2018-12-13T13:10:49.751Z,100514.16
2018-12-13T13:13:19.082Z,100517.03
2018-12-13T13:15:48.665Z,100510.34
2018-12-13T13:18:18.100Z,100515.19
2018-12-13T13:20:47.461Z,100513.53
2018-12-13T13:23:16.998Z,100502.80
2018-12-13T13:25:46.309Z,100504.14
2018-12-13T13:28:15.569Z,100513.64
2018-12-13T13:30:44.900Z,100504.61
2018-12-13T13:33:14.305Z,100504.63
2018-12-13T13:35:43.893Z,100504.14
2018-12-13T13:38:14.480Z,100506.36
2018-12-13T13:40:43.904Z,100507.20
2018-12-13T13:43:13.013Z,100505.05
2018-12-13T13:45:42.340Z,100508.55
2018-12-13T13:48:11.808Z,100498.58
2018-12-13T13:50:41.255Z,100504.69
2018-12-13T13:53:10.584Z,100503.78
2018-12-13T13:55:39.884Z,100508.34
2018-12-13T13:58:09.189Z,100500.81
2018-12-13T14:00:38.626Z,100503.83
2018-12-13T14:03:08.152Z,100506.69
2018-12-13T14:05:37.488Z,100514.25
2018-12-13T14:08:06.892Z,100515.76
2018-12-13T14:10:36.335Z,100511.95
2018-12-13T14:13:05.685Z,100511.34
2018-12-13T14:15:35.220Z,100506.09
2018-12-13T14:18:05.031Z,100507.47
2018-12-13T14:20:34.488Z,100506.00
2018-12-13T14:23:04.262Z,100510.48
2018-12-13T14:25:33.339Z,100516.81
2018-12-13T14:28:02.572Z,100522.53
2018-12-13T14:30:31.980Z,100517.36
2018-12-13T14:33:01.063Z,100517.66
2018-12-13T14:35:30.096Z,100516.91
2018-12-13T14:37:59.260Z,100508.78
2018-12-13T14:40:28.499Z,100512.44
2018-12-13T14:42:57.643Z,100512.63
2018-12-13T14:45:26.978Z,100523.07
2018-12-13T14:47:56.251Z,100531.20
2018-12-13T14:50:25.719Z,100536.23
2018-12-13T14:52:54.955Z,100539.25
2018-12-13T14:55:23.935Z,100537.66
2018-12-13T14:57:53.207Z,100539.05
2018-12-13T15:00:22.520Z,100544.41
2018-12-13T15:02:51.824Z,100544.48
2018-12-13T15:05:21.467Z,100545.65
2018-12-13T15:07:51.064Z,100542.32
2018-12-13T15:10:21.400Z,100536.88
2018-12-13T15:12:50.787Z,100536.88
2018-12-13T15:15:19.943Z,100544.09
2018-12-13T15:17:49.244Z,100545.80
2018-12-13T15:20:18.511Z,100545.22
2018-12-13T15:22:47.718Z,100544.48
2018-12-13T15:25:18.115Z,100542.98
2018-12-13T15:27:47.356Z,100541.58
2018-12-13T15:30:16.688Z,100548.62
2018-12-13T15:32:45.923Z,100549.66
2018-12-13T15:35:15.491Z,100547.03
2018-12-13T15:37:44.769Z,100549.55
2018-12-13T15:40:13.876Z,100553.33
2018-12-13T15:42:43.076Z,100549.74
2018-12-13T15:45:12.439Z,100561.86
2018-12-13T15:47:41.878Z,100561.09
2018-12-13T15:50:11.244Z,100562.05
2018-12-13T15:52:40.672Z,100559.89
2018-12-13T15:55:09.963Z,100561.88
2018-12-13T15:57:39.376Z,100546.94
2018-12-13T16:00:09.442Z,100552.47
2018-12-13T16:02:39.029Z,100554.59
2018-12-13T16:05:08.247Z,100548.06
2018-12-13T16:07:37.720Z,100557.09
2018-12-13T16:10:06.993Z,100560.20
2018-12-13T16:12:36.309Z,100558.72
2018-12-13T16:15:05.902Z,100560.13
2018-12-13T16:17:35.111Z,100559.27
2018-12-13T16:20:04.368Z,100560.05
2018-12-13T16:22:34.324Z,100560.81
2018-12-13T16:25:03.723Z,100561.89
2018-12-13T16:27:32.927Z,100559.84
2018-12-13T16:30:02.265Z,100559.30
2018-12-13T16:32:31.217Z,100563.77
2018-12-13T16:35:00.802Z,100568.12
2018-12-13T16:37:30.423Z,100571.58
2018-12-13T16:39:59.955Z,100566.91
2018-12-13T16:42:29.668Z,100567.98
2018-12-13T16:44:59.043Z,100566.45
2018-12-13T16:47:28.567Z,100567.27
2018-12-13T16:49:58.370Z,100570.52
2018-12-13T16:52:27.692Z,100566.42
2018-12-13T16:54:56.975Z,100565.42
2018-12-13T16:57:26.517Z,100561.55
2018-12-13T16:59:55.742Z,100562.34
2018-12-13T17:02:25.175Z,100566.27
2018-12-13T17:04:54.585Z,100565.06
2018-12-13T17:07:24.112Z,100564.34
2018-12-13T17:09:53.460Z,100566.81
2018-12-13T17:12:22.988Z,100567.20
2018-12-13T17:14:52.421Z,100571.49
2018-12-13T17:17:21.666Z,100566.68
2018-12-13T17:19:50.987Z,100563.82
2018-12-13T17:22:20.198Z,100562.02
2018-12-13T17:24:49.703Z,100563.84
2018-12-13T17:27:19.227Z,100569.25
2018-12-13T17:29:49.014Z,100564.91
2018-12-13T17:32:18.550Z,100564.67
2018-12-13T17:34:47.926Z,100557.41
2018-12-13T17:37:17.311Z,100568.05
2018-12-13T17:39:46.986Z,100563.56
2018-12-13T17:42:16.304Z,100567.39
2018-12-13T17:44:45.652Z,100564.30
2018-12-13T17:47:14.936Z,100569.89
2018-12-13T17:49:44.725Z,100567.12
2018-12-13T17:52:14.228Z,100565.73
2018-12-13T17:54:44.402Z,100572.41
2018-12-13T17:57:14.012Z,100568.09
2018-12-13T17:59:43.522Z,100567.58
2018-12-13T18:02:13.124Z,100570.13
2018-12-13T18:04:42.604Z,100565.50
2018-12-13T18:07:12.537Z,100563.79
2018-12-13T18:09:42.128Z,100573.68
2018-12-13T18:12:11.901Z,100568.45
2018-12-13T18:14:41.282Z,100570.55
2018-12-13T18:17:10.502Z,100571.39
2018-12-13T18:19:39.839Z,100569.53
2018-12-13T18:22:09.241Z,100577.08
2018-12-13T18:24:38.596Z,100576.11
2018-12-13T18:27:07.883Z,100579.32
2018-12-13T18:29:38.014Z,100582.48
2018-12-13T18:32:07.208Z,100586.42
2018-12-13T18:34:36.367Z,100588.52
2018-12-13T18:37:05.876Z,100582.67
2018-12-13T18:39:35.208Z,100587.94
2018-12-13T18:42:04.524Z,100591.23
2018-12-13T18:44:33.928Z,100594.24
2018-12-13T18:47:03.515Z,100593.20
2018-12-13T18:49:33.209Z,100581.45
2018-12-13T18:52:03.246Z,100590.53
2018-12-13T18:54:32.769Z,100584.73
2018-12-13T18:57:02.218Z,100579.72
2018-12-13T18:59:31.405Z,100592.08
2018-12-13T19:02:00.735Z,100581.02
2018-12-13T19:04:30.189Z,100590.23
2018-12-13T19:06:59.823Z,100593.61
2018-12-13T19:09:29.064Z,100587.20
2018-12-13T19:11:58.451Z,100598.58
2018-12-13T19:14:27.767Z,100591.69
2018-12-13T19:16:57.008Z,100591.52
2018-12-13T19:19:26.292Z,100587.43
2018-12-13T19:21:55.548Z,100583.38
2018-12-13T19:24:25.059Z,100579.75
2018-12-13T19:26:55.167Z,100576.23
2018-12-13T19:29:24.777Z,100588.41
2018-12-13T19:31:54.454Z,100586.70
2018-12-13T19:34:24.060Z,100590.45
2018-12-13T19:36:53.461Z,100595.12
2018-12-13T19:39:22.676Z,100594.00
2018-12-13T19:41:51.884Z,100597.64
2018-12-13T19:44:21.887Z,100596.39
2018-12-13T19:46:51.555Z,100592.87
2018-12-13T19:49:21.374Z,100589.37
2018-12-13T19:51:51.165Z,100591.46
2018-12-13T19:54:21.174Z,100600.12
2018-12-13T19:56:50.995Z,100598.24
2018-12-13T19:59:20.494Z,100597.73
2018-12-13T20:01:49.946Z,100594.23
2018-12-13T20:04:19.245Z,100598.38
2018-12-13T20:06:48.892Z,100601.81
2018-12-13T20:09:18.136Z,100600.42
2018-12-13T20:11:47.531Z,100607.83
2018-12-13T20:14:16.907Z,100605.79
2018-12-13T20:16:46.328Z,100617.56
2018-12-13T20:19:15.923Z,100613.44
2018-12-13T20:21:45.366Z,100617.38
2018-12-13T20:24:14.992Z,100618.62
2018-12-13T20:26:44.131Z,100626.63
2018-12-13T20:29:13.999Z,100623.47
2018-12-13T20:31:43.180Z,100622.10
2018-12-13T20:34:13.647Z,100621.84
2018-12-13T20:36:42.786Z,100626.97
2018-12-13T20:39:12.048Z,100629.70
2018-12-13T20:41:41.342Z,100626.86
2018-12-13T20:44:10.560Z,100627.07
2018-12-13T20:46:39.656Z,100628.85
2018-12-13T20:49:08.878Z,100622.27
2018-12-13T20:51:39.044Z,100627.44
2018-12-13T20:54:08.144Z,100637.80
2018-12-13T20:56:37.441Z,100637.02
2018-12-13T20:59:07.768Z,100640.50
2018-12-13T21:01:37.099Z,100643.05
2018-12-13T21:04:06.372Z,100643.14
2018-12-13T21:06:40.473Z,100635.66
2018-12-13T21:09:16.516Z,100640.91
2018-12-13T21:11:47.368Z,100640.35
2018-12-13T21:14:16.494Z,100646.08
2018-12-13T21:16:47.220Z,100635.97
2018-12-13T21:19:17.391Z,100627.92
2018-12-13T21:21:46.791Z,100629.07
2018-12-13T21:24:16.036Z,100623.23
2018-12-13T21:26:45.440Z,100625.38
2018-12-13T21:29:14.740Z,100623.75
2018-12-13T21:31:44.300Z,100624.06
2018-12-13T21:34:13.679Z,100620.73
2018-12-13T21:36:43.088Z,100617.72
2018-12-13T21:39:12.549Z,100615.89
2018-12-13T21:41:42.052Z,100617.86
2018-12-13T21:44:11.348Z,100618.12
2018-12-13T21:46:40.676Z,100620.88
2018-12-13T21:49:09.802Z,100619.22
2018-12-13T21:51:39.220Z,100621.37
2018-12-13T21:54:08.500Z,100619.06
2018-12-13T21:56:37.961Z,100624.20
2018-12-13T21:59:07.270Z,100621.43
2018-12-13T22:01:36.836Z,100616.97
2018-12-13T22:04:06.089Z,100620.91
2018-12-13T22:06:35.578Z,100619.59
2018-12-13T22:09:06.131Z,100619.63
2018-12-13T22:11:35.428Z,100621.44
2018-12-13T22:14:04.707Z,100615.34
2018-12-13T22:16:34.140Z,100623.34
2018-12-13T22:19:03.505Z,100625.12
2018-12-13T22:21:33.024Z,100626.52
2018-12-13T22:24:02.612Z,100633.85
2018-12-13T22:26:32.015Z,100634.17
2018-12-13T22:29:01.378Z,100631.02
2018-12-13T22:31:31.238Z,100632.40
2018-12-13T22:34:00.804Z,100634.56
2018-12-13T22:36:30.457Z,100643.50
2018-12-13T22:38:59.968Z,100649.92
2018-12-13T22:41:29.569Z,100656.76
2018-12-13T22:43:59.382Z,100660.95
2018-12-13T22:46:28.980Z,100651.52
2018-12-13T22:48:58.588Z,100653.20
2018-12-13T22:51:28.108Z,100651.64
2018-12-13T22:53:57.742Z,100648.95
2018-12-13T22:56:27.140Z,100648.64
2018-12-13T22:58:56.728Z,100647.82
2018-12-13T23:01:26.402Z,100642.90
2018-12-13T23:03:56.101Z,100644.14
2018-12-13T23:06:25.725Z,100647.30
2018-12-13T23:08:55.434Z,100638.64
2018-12-13T23:11:25.025Z,100635.38
2018-12-13T23:13:54.719Z,100632.72
2018-12-13T23:16:24.488Z,100638.50
2018-12-13T23:18:53.988Z,100641.91
2018-12-13T23:21:23.446Z,100639.80
2018-12-13T23:23:53.138Z,100638.48
2018-12-13T23:26:22.628Z,100642.91
2018-12-13T23:28:52.351Z,100645.67
2018-12-13T23:31:21.782Z,100645.99
2018-12-13T23:33:51.515Z,100649.98
2018-12-13T23:36:21.010Z,100657.47
2018-12-13T23:38:50.647Z,100658.02
2018-12-13T23:41:20.044Z,100662.11
2018-12-13T23:43:49.684Z,100658.71
2018-12-13T23:46:19.189Z,100660.02
2018-12-13T23:48:48.798Z,100664.73
2018-12-13T23:51:18.072Z,100655.31
2018-12-13T23:53:47.491Z,100662.65
2018-12-13T23:56:16.985Z,100647.44
2018-12-13T23:58:46.898Z,100658.00
